createdAt,value
2019-06-20T00:03:36.595Z,69.80
2019-06-20T00:07:46.885Z,70.00
2019-06-20T00:11:58.154Z,69.70
2019-06-20T00:16:08.431Z,69.30
2019-06-20T00:20:18.889Z,69.20
2019-06-20T00:24:29.211Z,70.30
2019-06-20T00:28:39.413Z,70.60
2019-06-20T00:32:49.762Z,70.20
2019-06-20T00:37:00.065Z,70.20
2019-06-20T00:41:10.558Z,70.20
2019-06-20T00:45:21.116Z,70.70
2019-06-20T00:49:31.443Z,70.50
2019-06-20T00:53:41.885Z,71.60
2019-06-20T00:57:52.313Z,73.10
2019-06-20T01:02:02.531Z,71.80
2019-06-20T01:06:12.708Z,70.80
2019-06-20T01:10:22.974Z,69.60
2019-06-20T01:14:33.314Z,68.60
2019-06-20T01:18:43.643Z,68.10
2019-06-20T01:22:53.972Z,68.70
2019-06-20T01:27:04.385Z,69.90
2019-06-20T01:31:14.684Z,69.80
2019-06-20T01:35:24.983Z,70.40
2019-06-20T01:39:35.435Z,70.50
2019-06-20T01:43:50.714Z,71.10
2019-06-20T01:47:57.595Z,70.90
2019-06-20T01:52:07.948Z,70.40
2019-06-20T01:56:18.552Z,70.40
2019-06-20T02:00:50.130Z,70.10
2019-06-20T02:05:00.552Z,70.40
2019-06-20T02:09:11.890Z,71.00
2019-06-20T02:13:22.245Z,72.20
2019-06-20T02:17:32.640Z,72.70
2019-06-20T02:21:42.989Z,71.80
2019-06-20T02:25:53.188Z,71.70
2019-06-20T02:30:03.761Z,71.60
2019-06-20T02:34:14.011Z,73.00
2019-06-20T02:38:24.351Z,75.90
2019-06-20T02:42:34.830Z,82.20
2019-06-20T02:46:45.249Z,85.40
2019-06-20T02:50:55.615Z,86.50
2019-06-20T02:55:06.038Z,87.00
2019-06-20T02:59:16.388Z,87.00
2019-06-20T03:03:28.321Z,87.10
2019-06-20T03:07:38.805Z,87.00
2019-06-20T03:11:49.390Z,86.60
2019-06-20T03:16:00.075Z,86.20
2019-06-20T03:20:10.538Z,86.60
2019-06-20T03:24:20.759Z,87.10
2019-06-20T03:28:31.107Z,88.30
2019-06-20T03:32:41.410Z,88.50
2019-06-20T03:36:51.837Z,88.80
2019-06-20T03:41:02.255Z,88.50
2019-06-20T03:45:13.405Z,88.10
2019-06-20T03:49:23.768Z,87.60
2019-06-20T03:53:34.096Z,86.90
2019-06-20T03:57:44.546Z,87.00
2019-06-20T04:01:54.881Z,86.30
2019-06-20T04:06:05.239Z,87.20
2019-06-20T04:10:15.524Z,88.00
2019-06-20T04:14:25.870Z,86.30
2019-06-20T04:18:36.178Z,82.90
2019-06-20T04:22:46.435Z,82.90
2019-06-20T04:26:56.761Z,82.80
2019-06-20T04:31:07.126Z,83.70
2019-06-20T04:35:17.433Z,84.30
2019-06-20T04:39:27.768Z,84.40
2019-06-20T04:43:38.157Z,83.50
2019-06-20T04:47:48.449Z,82.80
2019-06-20T04:51:58.852Z,80.90
2019-06-20T04:56:09.147Z,78.80
2019-06-20T05:00:19.790Z,77.60
2019-06-20T05:04:30.066Z,78.50
2019-06-20T05:08:40.408Z,79.10
2019-06-20T05:12:50.730Z,79.20
2019-06-20T05:17:00.975Z,80.00
2019-06-20T05:21:11.317Z,81.60
2019-06-20T05:25:21.623Z,86.70
2019-06-20T05:29:31.953Z,90.10
2019-06-20T05:33:42.180Z,90.40
2019-06-20T05:37:52.497Z,90.50
2019-06-20T05:42:02.874Z,90.90
2019-06-20T05:46:13.179Z,92.40
2019-06-20T05:50:23.476Z,93.10
2019-06-20T05:54:34.180Z,93.50
2019-06-20T05:58:44.529Z,94.30
2019-06-20T06:02:54.872Z,94.60
2019-06-20T06:07:05.234Z,94.50
2019-06-20T06:11:16.609Z,94.00
2019-06-20T06:15:27.132Z,93.60
2019-06-20T06:19:37.479Z,93.20
2019-06-20T06:23:47.872Z,92.70
2019-06-20T06:27:58.481Z,92.60
2019-06-20T06:32:08.994Z,92.50
2019-06-20T06:36:19.303Z,91.20
2019-06-20T06:40:29.674Z,90.50
2019-06-20T06:44:40.017Z,90.10
2019-06-20T06:48:50.368Z,89.00
2019-06-20T06:53:00.736Z,87.90
2019-06-20T06:57:11.090Z,87.40
2019-06-20T07:01:21.407Z,86.90
2019-06-20T07:05:31.716Z,86.60
2019-06-20T07:09:42.062Z,85.00
2019-06-20T07:13:52.367Z,84.50
2019-06-20T07:18:02.681Z,84.70
2019-06-20T07:22:13.116Z,82.00
2019-06-20T07:26:23.414Z,80.00
2019-06-20T07:30:33.723Z,79.30
2019-06-20T07:34:44.050Z,78.80
2019-06-20T07:38:54.474Z,79.30
2019-06-20T07:43:05.123Z,78.40
2019-06-20T07:47:17.946Z,77.70
2019-06-20T07:51:27.389Z,74.80
2019-06-20T07:55:37.649Z,71.60
2019-06-20T07:59:47.935Z,68.20
2019-06-20T08:03:58.376Z,65.90
2019-06-20T08:08:08.581Z,63.80
2019-06-20T08:12:19.062Z,61.80
2019-06-20T08:16:29.386Z,61.60
2019-06-20T08:20:39.599Z,62.00
2019-06-20T08:24:49.922Z,61.90
2019-06-20T08:29:16.153Z,61.60
2019-06-20T08:33:12.715Z,60.70
2019-06-20T08:37:23.048Z,58.60
2019-06-20T08:41:33.459Z,58.80
2019-06-20T08:45:44.248Z,58.20
2019-06-20T08:49:55.196Z,58.30
2019-06-20T08:54:06.623Z,57.60
2019-06-20T08:58:17.070Z,56.60
2019-06-20T09:02:27.390Z,57.20
2019-06-20T09:06:37.708Z,56.80
2019-06-20T09:10:48.010Z,57.20
2019-06-20T09:14:59.196Z,58.10
2019-06-20T09:19:09.548Z,56.80
2019-06-20T09:23:20.057Z,55.20
2019-06-20T09:27:30.466Z,54.30
2019-06-20T09:31:40.780Z,54.70
2019-06-20T09:35:52.415Z,54.80
2019-06-20T09:40:03.688Z,54.70
2019-06-20T09:44:14.033Z,53.70
2019-06-20T09:48:24.402Z,53.90
2019-06-20T09:52:34.740Z,54.80
2019-06-20T09:56:47.181Z,55.20
2019-06-20T10:00:57.477Z,55.20
2019-06-20T10:05:09.758Z,55.90
2019-06-20T10:09:20.107Z,55.90
2019-06-20T10:13:32.664Z,55.70
2019-06-20T10:17:42.356Z,54.40
2019-06-20T10:21:53.774Z,53.70
2019-06-20T10:26:04.309Z,53.70
2019-06-20T10:30:15.105Z,54.00
2019-06-20T10:34:26.257Z,54.20
2019-06-20T10:38:36.696Z,54.30
2019-06-20T10:42:48.098Z,54.30
2019-06-20T10:46:58.476Z,54.20
2019-06-20T10:51:26.639Z,54.00
2019-06-20T10:55:37.046Z,53.20
2019-06-20T10:59:48.431Z,54.40
2019-06-20T11:03:58.772Z,53.80
2019-06-20T11:08:09.029Z,54.50
2019-06-20T11:12:19.742Z,54.10
2019-06-20T11:16:29.962Z,53.70
2019-06-20T11:20:40.974Z,52.30
2019-06-20T11:24:52.124Z,50.40
2019-06-20T11:29:02.488Z,48.80
2019-06-20T11:33:12.761Z,48.90
2019-06-20T11:37:23.071Z,50.60
2019-06-20T11:41:33.387Z,49.90
2019-06-20T11:45:43.681Z,50.60
2019-06-20T11:49:54.019Z,51.90
2019-06-20T11:54:04.497Z,52.40
2019-06-20T11:58:14.804Z,51.50
2019-06-20T12:02:25.110Z,50.90
2019-06-20T12:06:35.434Z,51.40
2019-06-20T12:10:45.651Z,51.20
2019-06-20T12:14:55.984Z,51.20
2019-06-20T12:19:06.469Z,51.60
2019-06-20T12:23:16.812Z,51.40
2019-06-20T12:27:27.122Z,51.80
2019-06-20T12:31:37.443Z,52.20
2019-06-20T12:35:48.673Z,51.70
2019-06-20T12:39:59.012Z,51.10
2019-06-20T12:44:09.443Z,52.20
2019-06-20T12:48:19.751Z,52.20
2019-06-20T12:52:30.050Z,51.80
2019-06-20T12:56:41.885Z,52.70
2019-06-20T13:00:52.263Z,53.10
2019-06-20T13:05:02.548Z,53.10
2019-06-20T13:09:13.108Z,53.00
2019-06-20T13:13:23.497Z,53.10
2019-06-20T13:17:33.799Z,52.40
2019-06-20T13:21:44.680Z,49.70
2019-06-20T13:25:55.023Z,48.10
2019-06-20T13:30:07.431Z,46.90
2019-06-20T13:34:17.725Z,47.20
2019-06-20T13:38:28.062Z,48.30
2019-06-20T13:42:39.046Z,48.60
2019-06-20T13:46:50.541Z,48.00
2019-06-20T13:51:00.757Z,49.00
2019-06-20T13:55:11.227Z,49.70
2019-06-20T13:59:21.599Z,48.50
2019-06-20T14:03:31.994Z,48.40
2019-06-20T14:07:46.986Z,48.70
2019-06-20T14:11:54.766Z,48.40
2019-06-20T14:16:05.188Z,49.50
2019-06-20T14:20:15.744Z,49.10
2019-06-20T14:24:26.106Z,48.70
2019-06-20T14:28:37.147Z,49.30
2019-06-20T14:32:47.436Z,49.20
2019-06-20T14:36:57.816Z,48.90
2019-06-20T14:41:08.128Z,48.80
2019-06-20T14:45:18.881Z,48.20
2019-06-20T14:49:29.283Z,49.00
2019-06-20T14:53:39.771Z,48.70
2019-06-20T14:57:50.534Z,48.10
2019-06-20T15:02:01.285Z,48.10
2019-06-20T15:06:11.643Z,49.20
2019-06-20T15:10:22.003Z,49.90
2019-06-20T15:14:32.412Z,49.30
2019-06-20T15:18:46.400Z,48.00
2019-06-20T15:22:54.836Z,47.50
2019-06-20T15:27:05.156Z,47.70
2019-06-20T15:31:15.456Z,49.20
2019-06-20T15:35:26.009Z,48.40
2019-06-20T15:39:36.331Z,49.00
2019-06-20T15:43:48.060Z,49.60
2019-06-20T15:47:58.732Z,49.40
2019-06-20T15:52:09.085Z,49.40
2019-06-20T15:56:19.392Z,48.50
2019-06-20T16:00:29.708Z,48.50
2019-06-20T16:04:40.059Z,48.60
2019-06-20T16:08:50.345Z,47.40
2019-06-20T16:13:00.691Z,48.40
2019-06-20T16:17:10.890Z,48.00
2019-06-20T16:21:21.218Z,48.10
2019-06-20T16:25:31.617Z,48.00
2019-06-20T16:29:41.945Z,48.10
2019-06-20T16:33:52.297Z,48.70
2019-06-20T16:38:02.605Z,49.20
2019-06-20T16:42:12.974Z,48.40
2019-06-20T16:46:23.342Z,49.10
2019-06-20T16:50:33.608Z,49.90
2019-06-20T16:54:44.048Z,50.40
2019-06-20T16:58:54.424Z,50.20
2019-06-20T17:03:06.443Z,49.80
2019-06-20T17:07:17.457Z,50.60
2019-06-20T17:11:27.713Z,50.80
2019-06-20T17:15:38.152Z,51.10
2019-06-20T17:19:48.567Z,50.80
2019-06-20T17:23:59.092Z,50.70
2019-06-20T17:28:09.809Z,51.30
2019-06-20T17:32:20.104Z,52.20
2019-06-20T17:36:30.409Z,52.10
2019-06-20T17:40:41.537Z,53.10
2019-06-20T17:44:52.601Z,53.30
2019-06-20T17:49:02.982Z,53.60
2019-06-20T17:53:13.562Z,53.90
2019-06-20T17:57:23.891Z,54.80
2019-06-20T18:01:36.057Z,55.30
2019-06-20T18:05:46.111Z,55.60
2019-06-20T18:09:56.475Z,55.80
2019-06-20T18:14:06.877Z,56.60
2019-06-20T18:18:17.228Z,57.70
2019-06-20T18:22:27.542Z,58.20
2019-06-20T18:26:37.876Z,59.40
2019-06-20T18:30:48.669Z,60.60
2019-06-20T18:35:02.283Z,61.90
2019-06-20T18:39:11.849Z,63.90
2019-06-20T18:43:22.281Z,63.80
2019-06-20T18:47:32.678Z,63.90
2019-06-20T18:51:43.065Z,64.50
2019-06-20T18:55:53.343Z,64.70
2019-06-20T19:00:10.133Z,65.10
2019-06-20T19:04:21.176Z,66.00
2019-06-20T19:08:32.014Z,66.80
2019-06-20T19:12:42.358Z,67.30
2019-06-20T19:16:52.793Z,67.40
2019-06-20T19:21:03.114Z,67.60
2019-06-20T19:25:13.690Z,68.50
2019-06-20T19:29:24.085Z,68.80
2019-06-20T19:33:34.428Z,69.60
2019-06-20T19:37:44.620Z,69.70
2019-06-20T19:41:54.992Z,70.20
2019-06-20T19:46:05.297Z,70.40
2019-06-20T19:50:16.215Z,71.20
2019-06-20T19:54:26.507Z,71.20
2019-06-20T19:58:36.841Z,71.90
2019-06-20T20:02:47.144Z,72.90
2019-06-20T20:06:57.507Z,79.80
2019-06-20T20:11:07.807Z,86.30
2019-06-20T20:15:20.610Z,89.40
2019-06-20T20:19:31.020Z,89.60
2019-06-20T20:23:41.353Z,89.30
2019-06-20T20:27:51.819Z,90.10
2019-06-20T20:32:02.252Z,91.00
2019-06-20T20:36:24.335Z,90.70
2019-06-20T20:40:24.588Z,91.10
2019-06-20T20:44:34.894Z,91.20
2019-06-20T20:48:45.227Z,91.20
2019-06-20T20:52:55.586Z,91.30
2019-06-20T20:57:05.929Z,91.30
2019-06-20T21:01:19.414Z,90.80
2019-06-20T21:05:29.727Z,90.60
2019-06-20T21:09:40.353Z,90.40
2019-06-20T21:13:50.800Z,90.70
2019-06-20T21:18:01.103Z,90.70
2019-06-20T21:22:11.423Z,90.70
2019-06-20T21:26:21.793Z,90.80
2019-06-20T21:30:32.189Z,91.00
2019-06-20T21:34:43.246Z,91.30
2019-06-20T21:38:53.426Z,91.70
2019-06-20T21:43:03.842Z,91.50
2019-06-20T21:47:14.210Z,91.80
2019-06-20T21:51:24.487Z,92.00
2019-06-20T21:55:34.789Z,91.80
2019-06-20T21:59:45.140Z,91.60
2019-06-20T22:03:55.574Z,91.20
2019-06-20T22:08:06.025Z,91.40
2019-06-20T22:12:16.338Z,92.00
2019-06-20T22:16:26.775Z,92.40
2019-06-20T22:20:37.118Z,92.40
2019-06-20T22:24:47.989Z,92.40
2019-06-20T22:28:58.278Z,92.70
2019-06-20T22:33:10.155Z,93.10
2019-06-20T22:37:20.471Z,92.70
2019-06-20T22:41:30.869Z,92.10
2019-06-20T22:45:43.592Z,92.50
2019-06-20T22:49:53.675Z,92.70
2019-06-20T22:54:04.191Z,92.80
2019-06-20T22:58:14.629Z,92.80
2019-06-20T23:02:24.984Z,93.00
2019-06-20T23:06:35.355Z,92.90
2019-06-20T23:10:45.685Z,93.00
2019-06-20T23:14:56.015Z,93.10
2019-06-20T23:19:06.330Z,93.10
2019-06-20T23:23:16.629Z,93.20
2019-06-20T23:27:27.063Z,93.40
2019-06-20T23:31:37.409Z,93.40
2019-06-20T23:35:47.812Z,93.40
2019-06-20T23:39:58.157Z,93.50
2019-06-20T23:44:08.494Z,93.50
2019-06-20T23:48:18.858Z,93.80
2019-06-20T23:52:30.945Z,94.20
2019-06-20T23:56:41.254Z,93.80
